Elvins, Missouri
Current Conditions -  °F | °C
As of 9:55 AM on Friday 28 Nov 2014 (Local Time) from KFAM Reporting Station
Clear Clear  
Wind Chill: 29°   Ceiling: Unl
Heat Index: 37°   Visibility: 10mi
Dew Point: 30°   Wind: 13mph
Humidity: 75%   Direction: 140°SE
Pressure: 30.23"   Gusts: 23mph
Location:  37.8386°N, 90.5648°W
Report Text: KFAM 281555Z AUTO 14011G20KT 10SM CLR 03/M01 A3023 RMK AO1
Loading
Personal Weather Stations






























Interactive Weather Map New forecast layout! Learn more

10-Day Weather Forecast

Advertisements
Track Severe Weather on mobile